createdAt,value
2022-08-26T11:01:57.283Z,16.00
2022-08-26T11:03:34.664Z,14.60
2022-08-26T11:05:26.619Z,12.00
2022-08-26T11:07:32.697Z,8.20
2022-08-26T11:09:06.045Z,11.20
2022-08-26T11:10:38.291Z,16.80
2022-08-26T11:12:10.459Z,26.00
2022-08-26T11:13:57.486Z,17.40
2022-08-26T11:15:29.565Z,18.20
2022-08-26T11:17:02.493Z,19.00
2022-08-26T11:18:41.338Z,19.40
2022-08-26T11:20:29.094Z,20.00
2022-08-26T11:22:11.146Z,20.00
2022-08-26T11:23:50.355Z,21.00
2022-08-26T11:25:30.025Z,21.00
2022-08-26T11:27:02.759Z,18.00
2022-08-26T11:28:44.203Z,20.80
2022-08-26T11:30:18.343Z,19.00
2022-08-26T11:31:50.411Z,19.40
2022-08-26T11:33:44.043Z,15.60
2022-08-26T11:35:21.936Z,23.00
2022-08-26T11:36:56.488Z,24.20
2022-08-26T11:38:29.048Z,23.60
2022-08-26T11:40:02.928Z,22.00
2022-08-26T11:41:35.853Z,20.00
2022-08-26T11:43:19.586Z,27.00
2022-08-26T11:44:51.582Z,27.40
2022-08-26T11:46:25.515Z,27.20
2022-08-26T11:47:58.204Z,26.20
2022-08-26T11:49:32.053Z,26.20
2022-08-26T11:51:20.448Z,29.60
2022-08-26T11:52:57.116Z,24.00
2022-08-26T11:54:35.591Z,26.40
2022-08-26T11:56:15.768Z,28.20
2022-08-26T11:57:54.139Z,27.00
2022-08-26T12:01:11.487Z,27.80
2022-08-26T12:02:43.401Z,29.00
2022-08-26T12:04:34.685Z,30.60
2022-08-26T12:06:37.440Z,31.20
2022-08-26T12:08:21.579Z,31.80
2022-08-26T12:10:02.247Z,29.00
2022-08-26T12:11:35.624Z,31.40
2022-08-26T12:13:07.993Z,31.20
2022-08-26T12:14:40.030Z,31.20
2022-08-26T12:16:12.271Z,33.20
2022-08-26T12:17:49.415Z,31.20
2022-08-26T12:19:34.104Z,31.20
2022-08-26T12:21:24.282Z,29.00
2022-08-26T12:22:58.830Z,29.60
2022-08-26T12:24:31.261Z,31.20
2022-08-26T12:26:32.959Z,27.40
2022-08-26T12:28:05.110Z,27.80
2022-08-26T12:29:37.242Z,28.00
2022-08-26T12:31:11.563Z,27.20
2022-08-26T12:32:56.661Z,28.20
2022-08-26T12:34:30.167Z,27.60
2022-08-26T12:36:04.962Z,26.00
2022-08-26T12:37:39.867Z,26.40
2022-08-26T12:39:24.401Z,28.00
2022-08-26T12:40:57.273Z,27.40
2022-08-26T12:42:42.034Z,28.20
2022-08-26T12:44:53.915Z,30.00
2022-08-26T12:46:28.287Z,26.80
2022-08-26T12:48:02.290Z,27.00
2022-08-26T12:49:36.532Z,29.00
2022-08-26T12:51:14.776Z,27.40
2022-08-26T12:53:23.203Z,27.60
2022-08-26T12:55:00.616Z,24.00
2022-08-26T12:56:38.351Z,25.00
2022-08-26T12:58:15.790Z,23.80
2022-08-26T12:59:48.778Z,24.60
2022-08-26T13:01:23.618Z,22.80
2022-08-26T13:03:04.419Z,21.00
2022-08-26T13:04:41.139Z,20.00
2022-08-26T13:06:29.698Z,21.40
2022-08-26T13:08:14.936Z,23.20
2022-08-26T13:09:46.799Z,20.00
2022-08-26T13:11:20.415Z,23.00
2022-08-26T13:12:52.487Z,22.20
2022-08-26T13:14:25.329Z,23.60
2022-08-26T13:15:57.335Z,22.00
2022-08-26T13:17:29.446Z,22.00
2022-08-26T13:19:04.982Z,22.40
2022-08-26T13:20:44.468Z,24.00
2022-08-26T13:22:16.375Z,21.00
2022-08-26T13:23:51.295Z,23.00
2022-08-26T13:25:23.082Z,24.00
2022-08-26T13:26:56.125Z,24.00
2022-08-26T13:28:28.078Z,22.60
2022-08-26T13:30:01.571Z,24.00
2022-08-26T13:33:24.139Z,24.00
2022-08-26T13:34:56.533Z,22.00
2022-08-26T13:36:28.318Z,25.40
2022-08-26T13:38:00.096Z,23.80
2022-08-26T13:39:32.072Z,24.40
2022-08-26T13:41:04.859Z,24.20
2022-08-26T13:42:36.565Z,23.40
2022-08-26T13:44:08.310Z,25.80
2022-08-26T13:45:40.128Z,22.80
2022-08-26T13:47:11.917Z,24.00
2022-08-26T13:48:45.754Z,24.00
2022-08-26T13:50:18.791Z,24.00
2022-08-26T13:51:50.588Z,26.20
2022-08-26T13:53:22.455Z,24.80
2022-08-26T13:54:56.265Z,23.00
2022-08-26T13:56:29.689Z,27.40
2022-08-26T13:58:01.503Z,26.80
2022-08-26T13:59:33.345Z,25.40
2022-08-26T14:01:05.122Z,28.80
2022-08-26T14:02:38.453Z,28.20
2022-08-26T14:04:10.234Z,27.40
2022-08-26T14:05:42.214Z,28.20
2022-08-26T14:07:13.936Z,28.80
2022-08-26T14:08:45.894Z,25.80
2022-08-26T14:10:17.620Z,27.00
2022-08-26T14:11:55.085Z,28.80
2022-08-26T14:13:27.175Z,27.20
2022-08-26T14:14:58.957Z,28.20
2022-08-26T14:16:36.947Z,26.80
2022-08-26T14:18:24.955Z,28.20
2022-08-26T14:19:58.150Z,27.40
2022-08-26T14:21:34.584Z,27.40
2022-08-26T14:23:14.417Z,26.80
2022-08-26T14:24:46.435Z,27.00
2022-08-26T14:26:27.948Z,26.80
2022-08-26T14:28:01.577Z,24.40
2022-08-26T14:29:33.317Z,24.40
2022-08-26T14:31:05.333Z,24.40
2022-08-26T14:32:38.561Z,24.20
2022-08-26T14:34:10.439Z,26.20
2022-08-26T14:35:48.790Z,23.40
2022-08-26T14:37:22.099Z,22.80
2022-08-26T14:38:54.898Z,21.60
2022-08-26T14:40:28.989Z,21.00
2022-08-26T14:42:00.850Z,21.40
2022-08-26T14:43:32.661Z,21.40
2022-08-26T14:45:05.564Z,21.60
2022-08-26T14:46:46.239Z,22.00
2022-08-26T14:48:19.287Z,20.20
2022-08-26T14:49:51.126Z,20.00
2022-08-26T14:51:23.945Z,20.00
2022-08-26T14:53:14.409Z,18.20
2022-08-26T14:54:46.147Z,16.40
2022-08-26T14:56:18.005Z,19.60
2022-08-26T14:57:49.740Z,19.00
2022-08-26T14:59:23.958Z,16.40
2022-08-26T15:00:55.710Z,16.40
2022-08-26T15:02:33.225Z,18.20
2022-08-26T15:04:05.467Z,11.60
2022-08-26T15:05:37.296Z,12.00
2022-08-26T15:07:12.649Z,16.20
2022-08-26T15:08:44.778Z,14.20
2022-08-26T15:10:16.961Z,17.40
2022-08-26T15:11:48.753Z,16.60
2022-08-26T15:13:20.517Z,16.00
2022-08-26T15:14:52.369Z,17.40
2022-08-26T15:16:24.462Z,15.40
2022-08-26T15:17:56.451Z,15.00
2022-08-26T15:19:28.256Z,14.00
2022-08-26T15:21:00.098Z,14.20
2022-08-26T15:22:31.829Z,13.20
2022-08-26T15:24:04.352Z,14.80
2022-08-26T15:25:36.252Z,12.20
2022-08-26T15:27:09.158Z,12.00
2022-08-26T15:28:41.023Z,15.00
2022-08-26T15:30:13.113Z,13.60
2022-08-26T15:31:45.053Z,14.60
2022-08-26T15:33:16.984Z,12.20
2022-08-26T15:34:50.030Z,12.40
2022-08-26T15:36:21.808Z,13.60
2022-08-26T15:37:55.560Z,13.00
2022-08-26T15:39:27.383Z,7.60
2022-08-26T15:41:02.862Z,15.20
2022-08-26T15:42:35.362Z,14.00
2022-08-26T15:44:07.622Z,14.00
2022-08-26T15:45:39.407Z,12.60
2022-08-26T15:47:11.539Z,12.80
2022-08-26T15:48:43.441Z,12.00
2022-08-26T15:50:15.361Z,11.00
2022-08-26T15:51:48.125Z,13.60
2022-08-26T15:53:21.481Z,10.80
2022-08-26T15:54:53.397Z,10.40
2022-08-26T15:56:30.593Z,12.20
2022-08-26T15:58:03.504Z,13.20
2022-08-26T15:59:36.297Z,13.00
2022-08-26T16:01:08.472Z,10.20
2022-08-26T16:02:41.223Z,6.80
2022-08-26T16:04:14.020Z,11.80
2022-08-26T16:05:47.101Z,13.60
2022-08-26T16:07:19.183Z,12.60
2022-08-26T16:08:51.757Z,10.80
2022-08-26T16:10:23.514Z,12.60
2022-08-26T16:11:55.905Z,11.20
2022-08-26T16:13:27.681Z,12.20
2022-08-26T16:15:11.764Z,9.40
2022-08-26T16:16:43.533Z,11.40
2022-08-26T16:18:15.764Z,8.60
2022-08-26T16:19:47.563Z,13.00
2022-08-26T16:21:24.489Z,11.40
2022-08-26T16:22:56.337Z,11.00
2022-08-26T16:24:30.503Z,12.80
2022-08-26T16:26:15.996Z,10.00
2022-08-26T16:27:48.005Z,10.80
2022-08-26T16:29:19.990Z,8.20
2022-08-26T16:30:52.379Z,12.60
2022-08-26T16:32:26.366Z,9.40
2022-08-26T16:34:00.195Z,10.80
2022-08-26T16:35:31.971Z,9.80
2022-08-26T16:37:04.457Z,11.20
2022-08-26T16:38:37.864Z,11.00
2022-08-26T16:40:11.609Z,12.40
2022-08-26T16:41:44.326Z,12.00
2022-08-26T16:43:16.077Z,9.80
2022-08-26T16:44:48.004Z,11.00
2022-08-26T16:46:22.215Z,9.20
2022-08-26T16:47:55.261Z,11.40
2022-08-26T16:49:27.039Z,9.80
2022-08-26T16:50:58.794Z,10.20
2022-08-26T16:52:31.391Z,12.80
2022-08-26T16:54:03.603Z,12.00
2022-08-26T16:55:38.748Z,11.40
2022-08-26T16:57:12.181Z,8.40
2022-08-26T16:58:44.024Z,9.80
2022-08-26T17:00:26.152Z,10.80
2022-08-26T17:01:57.991Z,4.00
2022-08-26T17:03:30.458Z,11.60
2022-08-26T17:05:02.401Z,10.80
2022-08-26T17:06:34.626Z,10.80
2022-08-26T17:08:06.613Z,11.60
2022-08-26T17:09:39.500Z,12.40
2022-08-26T17:11:13.644Z,12.40
2022-08-26T17:12:45.425Z,12.00
2022-08-26T17:14:17.401Z,11.00
2022-08-26T17:15:54.245Z,9.80
2022-08-26T17:17:30.324Z,11.00
2022-08-26T17:19:02.459Z,11.20
2022-08-26T17:20:36.751Z,8.20
2022-08-26T17:22:09.503Z,11.20
2022-08-26T17:23:42.182Z,12.00
2022-08-26T17:25:20.649Z,8.00
2022-08-26T17:26:53.566Z,9.20
2022-08-26T17:28:28.767Z,12.20
2022-08-26T17:30:00.557Z,11.60
2022-08-26T17:31:32.549Z,9.00
2022-08-26T17:33:10.628Z,11.80
2022-08-26T17:34:42.813Z,11.00
2022-08-26T17:36:14.679Z,7.60
2022-08-26T17:37:47.646Z,12.60
2022-08-26T17:39:19.671Z,13.40
2022-08-26T17:40:51.664Z,9.00
2022-08-26T17:42:31.455Z,11.00
2022-08-26T17:44:04.309Z,11.20
2022-08-26T17:45:38.934Z,11.80
2022-08-26T17:47:10.843Z,8.00
2022-08-26T17:48:42.896Z,11.00
2022-08-26T17:50:16.389Z,11.00
2022-08-26T17:51:48.465Z,10.60
2022-08-26T17:53:21.406Z,10.20
2022-08-26T17:54:53.953Z,11.00
2022-08-26T17:56:30.050Z,10.00
2022-08-26T17:58:03.848Z,7.20
2022-08-26T17:59:38.725Z,10.00
2022-08-26T18:01:13.203Z,11.60
2022-08-26T18:02:45.248Z,9.60
2022-08-26T18:04:17.803Z,6.00
2022-08-26T18:05:50.885Z,10.80
2022-08-26T18:07:22.750Z,10.20
2022-08-26T18:08:54.701Z,10.40
2022-08-26T18:10:26.871Z,10.80
2022-08-26T18:11:59.080Z,11.00
2022-08-26T18:13:32.107Z,11.00
2022-08-26T18:15:04.278Z,11.20
2022-08-26T18:16:38.482Z,7.60
2022-08-26T18:18:10.458Z,11.20
2022-08-26T18:21:16.995Z,11.00
2022-08-26T18:22:49.503Z,11.20
2022-08-26T18:24:21.429Z,10.80
2022-08-26T18:25:53.386Z,11.20
2022-08-26T18:27:25.151Z,11.40
2022-08-26T18:28:57.073Z,11.60
2022-08-26T18:30:29.537Z,11.80
2022-08-26T18:32:05.883Z,13.00
2022-08-26T18:33:37.946Z,9.40
2022-08-26T18:35:11.408Z,9.80
2022-08-26T18:36:46.733Z,8.80
2022-08-26T18:38:19.425Z,11.20
2022-08-26T18:39:51.174Z,12.60
2022-08-26T18:41:25.722Z,12.20
2022-08-26T18:42:58.517Z,11.60
2022-08-26T18:44:30.262Z,14.80
2022-08-26T18:46:07.751Z,14.00
2022-08-26T18:47:39.787Z,14.00
2022-08-26T18:49:12.789Z,13.20
2022-08-26T18:50:47.289Z,13.00
2022-08-26T18:52:19.285Z,13.20
2022-08-26T18:53:51.057Z,15.00
2022-08-26T18:55:23.192Z,12.60
2022-08-26T18:56:55.333Z,9.40
2022-08-26T18:58:27.303Z,14.80
2022-08-26T18:59:59.207Z,16.20
2022-08-26T19:01:31.496Z,17.40
2022-08-26T19:03:03.727Z,13.60
2022-08-26T19:04:38.346Z,16.20
2022-08-26T19:06:21.006Z,11.00
2022-08-26T19:07:53.525Z,17.80
2022-08-26T19:09:26.448Z,15.80
2022-08-26T19:10:59.563Z,12.80
2022-08-26T19:12:32.042Z,14.00
2022-08-26T19:14:08.428Z,13.40
2022-08-26T19:15:41.762Z,12.20
2022-08-26T19:17:13.977Z,16.00
2022-08-26T19:18:46.443Z,15.80
2022-08-26T19:20:18.394Z,16.60
2022-08-26T19:21:50.552Z,12.80
2022-08-26T19:23:31.580Z,18.00
2022-08-26T19:25:04.271Z,16.40
2022-08-26T19:26:36.811Z,19.60
2022-08-26T19:28:09.249Z,24.40
2022-08-26T19:29:41.212Z,20.20
2022-08-26T19:31:13.179Z,23.20
2022-08-26T19:32:45.784Z,27.00
2022-08-26T19:34:18.243Z,29.80
2022-08-26T19:35:56.081Z,27.40
2022-08-26T19:37:28.147Z,31.00
2022-08-26T19:39:04.155Z,27.40
2022-08-26T19:40:38.590Z,33.20
2022-08-26T19:42:10.395Z,35.80
2022-08-26T19:43:42.385Z,35.00
2022-08-26T19:45:24.535Z,32.40
2022-08-26T19:46:57.408Z,35.20
2022-08-26T19:48:29.693Z,41.20
2022-08-26T19:50:01.762Z,34.40
2022-08-26T19:51:34.951Z,37.40
2022-08-26T19:53:06.704Z,44.80
2022-08-26T19:54:38.696Z,41.20
2022-08-26T19:56:11.002Z,46.20
2022-08-26T19:57:44.981Z,45.40
2022-08-26T19:59:17.593Z,47.00
2022-08-26T20:00:49.599Z,43.40
2022-08-26T20:02:21.584Z,47.00
2022-08-26T20:03:53.524Z,46.50
2022-08-26T20:05:26.058Z,47.75
2022-08-26T20:07:00.409Z,42.00
2022-08-26T20:08:33.573Z,45.50
2022-08-26T20:10:08.115Z,45.80
2022-08-26T20:11:42.613Z,47.25
2022-08-26T20:13:14.522Z,47.40
2022-08-26T20:14:46.281Z,43.60
2022-08-26T20:16:18.118Z,47.50
2022-08-26T20:17:50.011Z,42.80
2022-08-26T20:19:40.531Z,40.00
2022-08-26T20:21:27.961Z,45.75
2022-08-26T20:23:00.063Z,46.00
2022-08-26T20:24:33.332Z,42.40
2022-08-26T20:26:05.202Z,40.40
2022-08-26T20:27:38.421Z,42.80
2022-08-26T20:29:12.155Z,41.20
2022-08-26T20:30:43.988Z,42.80
2022-08-26T20:32:15.826Z,41.20
2022-08-26T20:33:48.320Z,149.25
2022-08-26T20:35:20.359Z,196.00
2022-08-26T20:36:52.648Z,206.00
2022-08-26T20:38:24.720Z,165.50
2022-08-26T20:39:56.759Z,105.00
2022-08-26T20:41:29.064Z,134.00
2022-08-26T20:43:01.385Z,96.25
2022-08-26T20:44:33.482Z,90.50
2022-08-26T20:46:09.977Z,78.40
2022-08-26T20:47:50.827Z,81.80
2022-08-26T20:49:22.848Z,77.40
2022-08-26T20:51:00.661Z,75.00
2022-08-26T20:52:35.587Z,98.75
2022-08-26T20:54:07.571Z,93.00
2022-08-26T20:55:39.869Z,100.75
2022-08-26T20:57:14.481Z,88.25
2022-08-26T20:58:46.517Z,79.00
2022-08-26T21:00:22.984Z,77.00
2022-08-26T21:01:58.616Z,85.80
2022-08-26T21:03:31.707Z,83.40
2022-08-26T21:05:04.229Z,80.75
2022-08-26T21:06:36.269Z,80.20
2022-08-26T21:08:09.263Z,85.20
2022-08-26T21:09:45.595Z,74.50
2022-08-26T21:11:18.329Z,86.50
2022-08-26T21:12:50.147Z,76.50
2022-08-26T21:14:25.677Z,83.20
2022-08-26T21:15:58.219Z,80.75
2022-08-26T21:17:30.137Z,64.25
2022-08-26T21:19:02.810Z,78.25
2022-08-26T21:20:34.636Z,68.50
2022-08-26T21:22:06.595Z,81.50
2022-08-26T21:23:38.510Z,86.80
2022-08-26T21:25:10.711Z,88.00
2022-08-26T21:26:42.783Z,78.00
2022-08-26T21:28:14.683Z,70.25
2022-08-26T21:29:46.505Z,82.40
2022-08-26T21:31:22.076Z,83.40
2022-08-26T21:32:53.982Z,79.50
2022-08-26T21:34:26.950Z,93.20
2022-08-26T21:35:58.967Z,70.75
2022-08-26T21:37:30.686Z,91.60
2022-08-26T21:39:02.435Z,75.40
2022-08-26T21:40:34.365Z,88.80
2022-08-26T21:42:06.257Z,88.80
2022-08-26T21:43:38.394Z,86.20
2022-08-26T21:45:10.417Z,77.20
2022-08-26T21:46:42.248Z,77.00
2022-08-26T21:48:13.969Z,84.60
2022-08-26T21:49:45.982Z,81.80
2022-08-26T21:51:19.105Z,75.80
2022-08-26T21:52:50.845Z,87.50
2022-08-26T21:54:22.731Z,90.25
2022-08-26T21:55:54.453Z,82.20
2022-08-26T21:57:26.858Z,93.60
2022-08-26T21:58:59.157Z,81.00
2022-08-26T22:00:30.909Z,79.80
2022-08-26T22:02:02.817Z,85.20
2022-08-26T22:03:35.165Z,85.20
2022-08-26T22:05:18.952Z,87.20
2022-08-26T22:06:52.934Z,79.20
2022-08-26T22:08:24.700Z,82.00
2022-08-26T22:09:59.879Z,75.25
2022-08-26T22:11:31.651Z,75.00
2022-08-26T22:13:03.439Z,79.20
2022-08-26T22:14:35.338Z,67.50
2022-08-26T22:16:07.536Z,69.75
2022-08-26T22:17:39.517Z,68.67
2022-08-26T22:19:13.841Z,64.75
2022-08-26T22:20:49.126Z,70.00
2022-08-26T22:22:20.848Z,69.00
2022-08-26T22:23:57.973Z,70.25
2022-08-26T22:25:30.141Z,66.75
2022-08-26T22:27:01.907Z,66.50
2022-08-26T22:28:33.844Z,66.75
2022-08-26T22:30:06.333Z,62.25
2022-08-26T22:31:38.910Z,67.25
2022-08-26T22:33:10.989Z,56.50
2022-08-26T22:34:42.795Z,62.00
